createdAt,value
2018-07-27T00:00:16.999Z,0.00
2018-07-27T00:01:17.044Z,0.00
2018-07-27T00:02:17.056Z,0.00
2018-07-27T00:03:17.090Z,0.00
2018-07-27T00:04:17.122Z,0.00
2018-07-27T00:05:17.152Z,0.00
2018-07-27T00:06:17.186Z,0.00
2018-07-27T00:07:17.202Z,0.00
2018-07-27T00:08:17.238Z,0.00
2018-07-27T00:09:17.260Z,0.00
2018-07-27T00:10:17.287Z,0.00
2018-07-27T00:11:17.319Z,0.00
2018-07-27T00:12:17.358Z,0.00
2018-07-27T00:13:17.380Z,0.00
2018-07-27T00:14:17.413Z,0.00
2018-07-27T00:15:17.440Z,0.00
2018-07-27T00:16:17.471Z,0.00
2018-07-27T00:17:17.503Z,0.00
2018-07-27T00:19:17.568Z,0.00
2018-07-27T00:20:17.594Z,0.00
2018-07-27T00:21:17.621Z,0.00
2018-07-27T00:22:17.649Z,0.00
2018-07-27T00:23:17.680Z,0.00
2018-07-27T00:24:17.715Z,0.00
2018-07-27T00:25:17.736Z,0.00
2018-07-27T00:26:17.772Z,0.00
2018-07-27T00:27:17.801Z,0.00
2018-07-27T00:28:17.820Z,0.00
2018-07-27T00:29:17.854Z,0.00
2018-07-27T00:30:17.885Z,0.00
2018-07-27T00:31:17.914Z,0.00
2018-07-27T00:32:17.935Z,0.00
2018-07-27T00:33:17.965Z,0.00
2018-07-27T00:34:17.996Z,0.00
2018-07-27T00:35:18.030Z,0.00
2018-07-27T00:36:18.074Z,0.00
2018-07-27T00:37:18.089Z,0.00
2018-07-27T00:38:18.114Z,0.00
2018-07-27T00:39:18.148Z,0.00
2018-07-27T00:40:18.176Z,0.00
2018-07-27T00:41:18.204Z,0.00
2018-07-27T00:42:18.237Z,0.00
2018-07-27T00:43:18.267Z,0.00
2018-07-27T00:44:18.291Z,0.00
2018-07-27T00:45:18.327Z,0.00
2018-07-27T00:46:18.355Z,0.00
2018-07-27T00:47:18.389Z,0.00
2018-07-27T00:48:18.423Z,0.00
2018-07-27T00:50:18.474Z,0.00
2018-07-27T00:51:18.518Z,0.00
2018-07-27T00:52:18.535Z,0.00
2018-07-27T00:53:18.555Z,0.00
2018-07-27T00:55:18.623Z,0.00
2018-07-27T00:56:18.649Z,0.00
2018-07-27T00:57:18.677Z,0.00
2018-07-27T00:58:18.707Z,0.00
2018-07-27T00:59:18.732Z,0.00
2018-07-27T01:00:18.768Z,0.00
2018-07-27T01:01:18.792Z,0.00
2018-07-27T01:02:18.825Z,0.00
2018-07-27T01:03:18.861Z,0.00
2018-07-27T01:04:18.885Z,0.00
2018-07-27T01:05:18.910Z,0.00
2018-07-27T01:06:18.944Z,0.00
2018-07-27T01:07:18.968Z,0.00
2018-07-27T01:08:19.009Z,0.00
2018-07-27T01:09:19.038Z,0.00
2018-07-27T01:10:19.058Z,0.00
2018-07-27T01:11:19.089Z,0.00
2018-07-27T01:12:19.114Z,0.00
2018-07-27T01:13:19.151Z,0.00
2018-07-27T01:14:19.174Z,0.00
2018-07-27T01:16:19.225Z,0.00
2018-07-27T01:17:19.270Z,0.00
2018-07-27T01:18:19.287Z,0.00
2018-07-27T01:19:19.318Z,0.00
2018-07-27T01:20:19.339Z,0.00
2018-07-27T01:21:19.372Z,0.00
2018-07-27T01:22:19.409Z,0.00
2018-07-27T01:23:19.424Z,0.00
2018-07-27T01:24:19.460Z,0.00
2018-07-27T01:25:19.498Z,0.00
2018-07-27T01:26:19.522Z,0.00
2018-07-27T01:27:19.548Z,0.00
2018-07-27T01:28:19.575Z,0.00
2018-07-27T01:29:19.626Z,0.00
2018-07-27T01:30:19.633Z,0.00
2018-07-27T01:31:19.662Z,0.00
2018-07-27T01:32:19.692Z,0.00
2018-07-27T01:33:19.734Z,0.00
2018-07-27T01:34:19.747Z,0.00
2018-07-27T01:35:19.776Z,0.00
2018-07-27T01:36:19.804Z,0.00
2018-07-27T01:37:19.840Z,0.00
2018-07-27T01:38:19.872Z,0.00
2018-07-27T01:39:19.892Z,0.00
2018-07-27T01:40:19.923Z,0.00
2018-07-27T01:41:19.945Z,0.00
2018-07-27T01:42:19.972Z,0.00
2018-07-27T01:43:20.011Z,0.00
2018-07-27T01:44:20.028Z,0.00
2018-07-27T01:45:20.063Z,0.00
2018-07-27T01:46:20.094Z,0.00
2018-07-27T01:47:20.124Z,0.00
2018-07-27T01:48:20.154Z,0.00
2018-07-27T01:49:20.176Z,0.00
2018-07-27T01:50:20.211Z,0.00
2018-07-27T01:51:20.239Z,0.00
2018-07-27T01:52:20.284Z,0.00
2018-07-27T01:53:20.296Z,0.00
2018-07-27T01:54:20.324Z,0.00
2018-07-27T01:55:20.362Z,0.00
2018-07-27T01:56:20.386Z,0.00
2018-07-27T01:57:20.416Z,0.00
2018-07-27T01:58:20.442Z,0.00
2018-07-27T01:59:20.469Z,0.00
2018-07-27T02:00:20.496Z,0.00
2018-07-27T02:01:20.525Z,0.00
2018-07-27T02:02:20.564Z,0.00
2018-07-27T02:03:20.583Z,0.00
2018-07-27T02:04:20.612Z,0.00
2018-07-27T02:05:20.657Z,0.00
2018-07-27T02:06:20.673Z,0.00
2018-07-27T02:07:20.707Z,0.00
2018-07-27T02:08:20.724Z,0.00
2018-07-27T02:09:20.755Z,0.00
2018-07-27T02:10:20.787Z,0.00
2018-07-27T02:11:20.816Z,0.00
2018-07-27T02:12:20.847Z,0.00
2018-07-27T02:13:20.870Z,0.00
2018-07-27T02:14:20.899Z,0.00
2018-07-27T02:15:20.927Z,0.00
2018-07-27T02:16:20.956Z,0.00
2018-07-27T02:17:20.985Z,0.00
2018-07-27T02:18:21.017Z,0.00
2018-07-27T02:19:21.072Z,0.00
2018-07-27T02:20:21.068Z,0.00
2018-07-27T02:21:21.106Z,0.00
2018-07-27T02:22:21.133Z,0.00
2018-07-27T02:23:21.159Z,0.00
2018-07-27T02:24:21.187Z,0.00
2018-07-27T02:25:21.218Z,0.00
2018-07-27T02:26:21.253Z,0.00
2018-07-27T02:27:21.276Z,0.00
2018-07-27T02:28:21.312Z,0.00
2018-07-27T02:29:21.339Z,0.00
2018-07-27T02:30:21.364Z,0.00
2018-07-27T02:31:21.388Z,0.00
2018-07-27T02:32:21.420Z,0.00
2018-07-27T02:33:21.472Z,0.00
2018-07-27T02:34:21.468Z,0.00
2018-07-27T02:35:21.516Z,0.00
2018-07-27T02:36:21.533Z,0.00
2018-07-27T02:37:21.564Z,0.00
2018-07-27T02:38:21.594Z,0.00
2018-07-27T02:39:21.625Z,0.00
2018-07-27T02:40:21.655Z,0.00
2018-07-27T02:41:21.684Z,0.00
2018-07-27T02:42:21.707Z,0.00
2018-07-27T02:43:21.727Z,0.00
2018-07-27T02:44:21.760Z,0.00
2018-07-27T02:45:21.800Z,0.00
2018-07-27T02:47:21.850Z,0.00
2018-07-27T02:48:21.878Z,0.00
2018-07-27T02:49:21.906Z,0.00
2018-07-27T02:50:21.943Z,0.00
2018-07-27T02:51:22.000Z,0.00
2018-07-27T02:52:21.991Z,0.00
2018-07-27T02:53:22.028Z,0.00
2018-07-27T02:54:22.052Z,0.00
2018-07-27T02:55:22.074Z,0.00
2018-07-27T02:56:22.100Z,0.00
2018-07-27T02:57:22.145Z,0.00
2018-07-27T02:58:22.169Z,0.00
2018-07-27T02:59:22.199Z,0.00
2018-07-27T03:00:22.228Z,0.00
2018-07-27T03:01:22.246Z,0.00
2018-07-27T03:02:22.275Z,0.00
2018-07-27T03:03:22.305Z,0.00
2018-07-27T03:04:22.342Z,0.00
2018-07-27T03:05:22.359Z,0.00
2018-07-27T03:06:22.387Z,0.00
2018-07-27T03:07:22.417Z,0.00
2018-07-27T03:08:22.445Z,0.00
2018-07-27T03:09:22.484Z,0.00
2018-07-27T03:10:22.513Z,0.00
2018-07-27T03:11:22.535Z,0.00
2018-07-27T03:12:22.559Z,0.00
2018-07-27T03:13:22.582Z,0.00
2018-07-27T03:14:22.640Z,0.00
2018-07-27T03:15:22.656Z,0.00
2018-07-27T03:16:22.678Z,0.00
2018-07-27T03:17:22.695Z,0.00
2018-07-27T03:18:22.726Z,0.00
2018-07-27T03:19:22.756Z,0.00
2018-07-27T03:20:22.794Z,0.00
2018-07-27T03:21:22.817Z,0.00
2018-07-27T03:22:22.847Z,0.00
2018-07-27T03:23:22.872Z,0.00
2018-07-27T03:24:22.898Z,0.00
2018-07-27T03:25:22.943Z,0.00
2018-07-27T03:26:22.959Z,0.00
2018-07-27T03:27:22.981Z,0.00
2018-07-27T03:28:23.014Z,0.00
2018-07-27T03:29:23.038Z,0.00
2018-07-27T03:30:23.067Z,0.00
2018-07-27T03:31:23.094Z,0.00
2018-07-27T03:32:23.118Z,0.00
2018-07-27T03:33:23.159Z,0.00
2018-07-27T03:34:23.190Z,0.00
2018-07-27T03:35:23.211Z,0.00
2018-07-27T03:36:23.235Z,0.00
2018-07-27T03:37:23.262Z,0.00
2018-07-27T03:38:23.292Z,0.00
2018-07-27T03:39:23.322Z,0.00
2018-07-27T03:40:23.352Z,4.00
2018-07-27T03:41:23.382Z,4.00
2018-07-27T03:42:23.401Z,0.00
2018-07-27T03:43:23.442Z,0.00
2018-07-27T03:44:23.459Z,0.00
2018-07-27T03:45:23.485Z,0.00
2018-07-27T03:46:23.528Z,4.00
2018-07-27T03:47:23.549Z,4.00
2018-07-27T03:48:23.572Z,4.00
2018-07-27T03:49:23.597Z,0.00
2018-07-27T03:50:23.627Z,0.00
2018-07-27T03:51:23.654Z,4.00
2018-07-27T03:52:23.682Z,4.00
2018-07-27T03:53:23.718Z,4.00
2018-07-27T03:54:23.747Z,4.00
2018-07-27T03:55:23.796Z,4.00
2018-07-27T03:56:23.794Z,4.00
2018-07-27T03:57:23.823Z,8.00
2018-07-27T03:58:23.852Z,4.00
2018-07-27T03:59:23.883Z,4.00
2018-07-27T04:00:23.905Z,8.00
2018-07-27T04:01:23.939Z,4.00
2018-07-27T04:02:24.075Z,8.00
2018-07-27T04:03:23.990Z,8.00
2018-07-27T04:04:24.020Z,8.00
2018-07-27T04:05:24.048Z,8.00
2018-07-27T04:06:24.066Z,8.00
2018-07-27T04:07:24.142Z,8.00
2018-07-27T04:08:24.123Z,8.00
2018-07-27T04:09:24.156Z,12.00
2018-07-27T04:10:24.183Z,8.00
2018-07-27T04:11:24.215Z,12.00
2018-07-27T04:12:24.247Z,8.00
2018-07-27T04:13:24.262Z,12.00
2018-07-27T04:14:24.305Z,16.00
2018-07-27T04:15:24.332Z,12.00
2018-07-27T04:16:24.358Z,16.00
2018-07-27T04:17:24.379Z,12.00
2018-07-27T04:18:24.402Z,16.00
2018-07-27T04:19:24.453Z,16.00
2018-07-27T04:20:24.461Z,16.00
2018-07-27T04:21:24.493Z,16.00
2018-07-27T04:22:24.539Z,16.00
2018-07-27T04:23:24.549Z,20.00
2018-07-27T04:24:24.573Z,16.00
2018-07-27T04:25:24.600Z,20.00
2018-07-27T04:26:24.686Z,16.00
2018-07-27T04:27:24.651Z,20.00
2018-07-27T04:28:24.705Z,20.00
2018-07-27T04:29:24.732Z,20.00
2018-07-27T04:30:24.737Z,20.00
2018-07-27T04:31:24.767Z,24.00
2018-07-27T04:32:24.818Z,20.00
2018-07-27T04:33:24.818Z,24.00
2018-07-27T04:34:24.848Z,24.00
2018-07-27T04:35:24.880Z,28.00
2018-07-27T04:36:24.906Z,24.00
2018-07-27T04:37:24.946Z,24.00
2018-07-27T04:38:24.956Z,28.00
2018-07-27T04:39:24.988Z,24.00
2018-07-27T04:40:25.019Z,28.00
2018-07-27T04:41:25.045Z,28.00
2018-07-27T04:42:25.073Z,28.00
2018-07-27T04:43:25.108Z,28.00
2018-07-27T04:44:25.126Z,28.00
2018-07-27T04:45:25.155Z,32.00
2018-07-27T04:46:25.182Z,28.00
2018-07-27T04:47:25.230Z,28.00
2018-07-27T04:48:25.249Z,32.00
2018-07-27T04:49:25.284Z,32.00
2018-07-27T04:50:25.290Z,32.00
2018-07-27T04:51:25.328Z,32.00
2018-07-27T04:52:25.366Z,36.00
2018-07-27T04:53:25.375Z,36.00
2018-07-27T04:54:25.401Z,36.00
2018-07-27T04:55:25.429Z,36.00
2018-07-27T04:56:25.471Z,36.00
2018-07-27T04:57:25.485Z,36.00
2018-07-27T04:58:25.516Z,36.00
2018-07-27T04:59:25.535Z,36.00
2018-07-27T05:00:25.573Z,40.00
2018-07-27T05:01:25.589Z,40.00
2018-07-27T05:02:25.622Z,40.00
2018-07-27T05:03:25.649Z,40.00
2018-07-27T05:04:25.683Z,44.00
2018-07-27T05:05:25.707Z,44.00
2018-07-27T05:06:25.735Z,44.00
2018-07-27T05:07:25.767Z,44.00
2018-07-27T05:08:25.795Z,44.00
2018-07-27T05:09:25.821Z,44.00
2018-07-27T05:10:25.843Z,44.00
2018-07-27T05:11:25.878Z,44.00
2018-07-27T05:12:25.901Z,44.00
2018-07-27T05:13:25.929Z,48.00
2018-07-27T05:14:25.962Z,44.00
2018-07-27T05:15:25.987Z,48.00
2018-07-27T05:16:26.026Z,48.00
2018-07-27T05:17:26.041Z,48.00
2018-07-27T05:18:26.066Z,52.00
2018-07-27T05:19:26.099Z,52.00
2018-07-27T05:20:26.134Z,52.00
2018-07-27T05:21:26.150Z,52.00
2018-07-27T05:22:26.181Z,52.00
2018-07-27T05:24:26.234Z,56.00
2018-07-27T05:25:26.261Z,56.00
2018-07-27T05:26:26.288Z,60.00
2018-07-27T05:27:26.320Z,56.00
2018-07-27T05:28:26.343Z,60.00
2018-07-27T05:29:26.411Z,60.00
2018-07-27T05:30:26.422Z,60.00
2018-07-27T05:31:26.431Z,60.00
2018-07-27T05:32:26.458Z,64.00
2018-07-27T05:33:26.485Z,60.00
2018-07-27T05:34:26.570Z,64.00
2018-07-27T05:35:26.543Z,64.00
2018-07-27T05:36:26.559Z,68.00
2018-07-27T05:37:26.595Z,68.00
2018-07-27T05:38:26.624Z,68.00
2018-07-27T05:39:26.648Z,72.00
2018-07-27T05:40:26.679Z,68.00
2018-07-27T05:41:26.707Z,72.00
2018-07-27T05:42:26.735Z,76.00
2018-07-27T05:43:26.764Z,72.00
2018-07-27T05:44:26.789Z,76.00
2018-07-27T05:45:26.822Z,76.00
2018-07-27T05:46:26.845Z,76.00
2018-07-27T05:47:26.877Z,80.00
2018-07-27T05:49:26.929Z,80.00
2018-07-27T05:50:26.954Z,80.00
2018-07-27T05:51:26.985Z,80.00
2018-07-27T05:52:27.018Z,84.00
2018-07-27T05:53:27.059Z,84.00
2018-07-27T05:54:27.076Z,84.00
2018-07-27T05:55:27.148Z,88.00
2018-07-27T05:57:27.151Z,88.00
2018-07-27T05:58:27.193Z,88.00
2018-07-27T05:59:27.250Z,88.00
2018-07-27T06:00:27.255Z,88.00
2018-07-27T06:01:27.273Z,92.00
2018-07-27T06:02:27.292Z,88.00
2018-07-27T06:03:27.340Z,92.00
2018-07-27T06:04:27.367Z,92.00
2018-07-27T06:05:27.371Z,92.00
2018-07-27T06:06:27.402Z,96.00
2018-07-27T06:07:27.430Z,96.00
2018-07-27T06:08:27.465Z,96.00
2018-07-27T06:09:27.493Z,100.00
2018-07-27T06:10:27.523Z,96.00
2018-07-27T06:11:27.547Z,100.00
2018-07-27T06:12:27.572Z,100.00
2018-07-27T06:13:27.601Z,104.00
2018-07-27T06:14:27.688Z,100.00
2018-07-27T06:15:27.676Z,100.00
2018-07-27T06:16:27.689Z,104.00
2018-07-27T06:17:27.727Z,104.00
2018-07-27T06:18:27.741Z,104.00
2018-07-27T06:19:27.770Z,108.00
2018-07-27T06:20:27.811Z,108.00
2018-07-27T06:21:27.830Z,104.00
2018-07-27T06:22:27.857Z,108.00
2018-07-27T06:23:27.886Z,108.00
2018-07-27T06:24:27.949Z,108.00
2018-07-27T06:25:27.956Z,112.00
2018-07-27T06:26:27.971Z,112.00
2018-07-27T06:27:28.004Z,112.00
2018-07-27T06:28:28.030Z,112.00
2018-07-27T06:29:28.059Z,112.00
2018-07-27T06:30:28.115Z,116.00
2018-07-27T06:31:28.110Z,112.00
2018-07-27T06:32:28.152Z,116.00
2018-07-27T06:33:28.169Z,112.00
2018-07-27T06:34:28.202Z,112.00
2018-07-27T06:35:28.224Z,112.00
2018-07-27T06:36:28.259Z,112.00
2018-07-27T06:37:28.305Z,112.00
2018-07-27T06:38:28.328Z,112.00
2018-07-27T06:39:28.352Z,112.00
2018-07-27T06:40:28.371Z,116.00
2018-07-27T06:41:28.391Z,116.00
2018-07-27T06:42:28.422Z,116.00
2018-07-27T06:43:28.453Z,116.00
2018-07-27T06:44:28.503Z,116.00
2018-07-27T06:45:28.516Z,120.00
2018-07-27T06:46:28.534Z,120.00
2018-07-27T06:47:28.571Z,120.00
2018-07-27T06:48:28.598Z,120.00
2018-07-27T06:49:28.626Z,124.00
2018-07-27T06:50:28.656Z,124.00
2018-07-27T06:51:28.677Z,128.00
2018-07-27T06:52:28.778Z,136.00
2018-07-27T06:54:28.768Z,144.00
2018-07-27T06:55:28.795Z,152.00
2018-07-27T06:56:28.845Z,160.00
2018-07-27T06:57:28.852Z,172.00
2018-07-27T06:58:28.878Z,184.00
2018-07-27T06:59:28.914Z,196.00
2018-07-27T07:00:28.939Z,212.00
2018-07-27T07:01:28.977Z,228.00
2018-07-27T07:02:29.003Z,248.00
2018-07-27T07:03:29.031Z,264.00
2018-07-27T07:04:29.054Z,280.00
2018-07-27T07:06:29.110Z,296.00
2018-07-27T07:07:29.143Z,304.00
2018-07-27T07:08:29.170Z,308.00
2018-07-27T07:09:29.195Z,312.00
2018-07-27T07:10:29.226Z,312.00
2018-07-27T07:11:29.256Z,308.00
2018-07-27T07:12:29.285Z,308.00
2018-07-27T07:13:29.313Z,296.00
2018-07-27T07:14:29.387Z,292.00
2018-07-27T07:15:29.371Z,284.00
2018-07-27T07:16:29.402Z,272.00
2018-07-27T07:17:29.434Z,264.00
2018-07-27T07:18:29.459Z,256.00
2018-07-27T07:19:29.494Z,248.00
2018-07-27T07:20:29.511Z,232.00
2018-07-27T07:21:29.542Z,232.00
2018-07-27T07:22:29.572Z,216.00
2018-07-27T07:23:29.603Z,208.00
2018-07-27T07:24:29.631Z,200.00
2018-07-27T07:25:29.734Z,180.00
2018-07-27T07:26:29.709Z,172.00
2018-07-27T07:27:29.721Z,176.00
2018-07-27T07:28:29.749Z,168.00
2018-07-27T07:29:29.784Z,164.00
2018-07-27T07:30:29.799Z,164.00
2018-07-27T07:31:29.828Z,156.00
2018-07-27T07:32:29.857Z,152.00
2018-07-27T07:33:29.885Z,152.00
2018-07-27T07:34:29.931Z,152.00
2018-07-27T07:35:29.957Z,148.00
2018-07-27T07:36:29.983Z,148.00
2018-07-27T07:37:30.022Z,152.00
2018-07-27T07:38:30.048Z,148.00
2018-07-27T07:39:30.069Z,152.00
2018-07-27T07:40:30.109Z,152.00
2018-07-27T07:41:30.130Z,152.00
2018-07-27T07:42:30.161Z,160.00
2018-07-27T07:44:30.211Z,160.00
2018-07-27T07:45:30.245Z,160.00
2018-07-27T07:47:30.301Z,176.00
2018-07-27T07:48:30.332Z,172.00
2018-07-27T07:49:30.369Z,176.00
2018-07-27T07:50:30.384Z,180.00
2018-07-27T07:51:30.419Z,196.00
2018-07-27T07:52:30.449Z,208.00
2018-07-27T07:53:30.475Z,228.00
2018-07-27T07:54:30.501Z,240.00
2018-07-27T07:55:30.537Z,248.00
2018-07-27T07:56:30.577Z,248.00
2018-07-27T07:57:30.589Z,252.00
2018-07-27T07:58:30.669Z,252.00
2018-07-27T07:59:30.654Z,256.00
2018-07-27T08:00:30.674Z,252.00
2018-07-27T08:01:30.712Z,244.00
2018-07-27T08:02:30.747Z,248.00
2018-07-27T08:03:30.773Z,244.00
2018-07-27T08:04:30.804Z,240.00
2018-07-27T08:05:30.841Z,240.00
2018-07-27T08:06:30.864Z,236.00
2018-07-27T08:07:30.896Z,236.00
2018-07-27T08:08:30.926Z,244.00
2018-07-27T08:09:30.946Z,236.00
2018-07-27T08:10:30.970Z,232.00
2018-07-27T08:11:31.011Z,220.00
2018-07-27T08:12:31.075Z,216.00
2018-07-27T08:13:31.058Z,212.00
2018-07-27T08:14:31.097Z,212.00
2018-07-27T08:15:31.119Z,204.00
2018-07-27T08:16:31.153Z,200.00
2018-07-27T08:17:31.182Z,192.00
2018-07-27T08:18:31.218Z,192.00
2018-07-27T08:20:31.267Z,192.00
2018-07-27T08:21:31.303Z,192.00
2018-07-27T08:22:31.337Z,192.00
2018-07-27T08:23:31.375Z,192.00
2018-07-27T08:24:31.385Z,200.00
2018-07-27T08:25:31.419Z,196.00
2018-07-27T08:26:31.452Z,196.00
2018-07-27T08:27:31.502Z,196.00
2018-07-27T08:28:31.505Z,196.00
2018-07-27T08:29:31.545Z,196.00
2018-07-27T08:30:31.572Z,200.00
2018-07-27T08:31:31.605Z,196.00
2018-07-27T08:32:31.648Z,196.00
2018-07-27T08:33:31.654Z,192.00
2018-07-27T08:34:31.685Z,192.00
2018-07-27T08:35:31.718Z,196.00
2018-07-27T08:36:31.748Z,192.00
2018-07-27T08:37:31.780Z,192.00
2018-07-27T08:38:31.810Z,192.00
2018-07-27T08:39:31.852Z,196.00
2018-07-27T08:40:31.865Z,192.00
2018-07-27T08:41:31.897Z,196.00
2018-07-27T08:42:31.934Z,196.00
2018-07-27T08:43:31.971Z,200.00
2018-07-27T08:44:31.992Z,196.00
2018-07-27T08:45:32.012Z,200.00
2018-07-27T08:46:32.045Z,196.00
2018-07-27T08:47:32.072Z,196.00
2018-07-27T08:48:32.110Z,196.00
2018-07-27T08:49:32.139Z,200.00
2018-07-27T08:50:32.162Z,200.00
2018-07-27T08:51:32.192Z,200.00
2018-07-27T08:52:32.257Z,204.00
2018-07-27T08:53:32.252Z,204.00
2018-07-27T08:54:32.296Z,204.00
2018-07-27T08:55:32.311Z,208.00
2018-07-27T08:56:32.346Z,204.00
2018-07-27T08:57:32.376Z,204.00
2018-07-27T08:58:32.411Z,208.00
2018-07-27T08:59:32.444Z,208.00
2018-07-27T09:00:32.491Z,212.00
2018-07-27T09:01:32.493Z,208.00
2018-07-27T09:02:32.523Z,212.00
2018-07-27T09:03:32.571Z,212.00
2018-07-27T09:04:32.594Z,212.00
2018-07-27T09:05:32.623Z,212.00
2018-07-27T09:06:32.652Z,208.00
2018-07-27T09:07:32.680Z,216.00
2018-07-27T09:08:32.708Z,212.00
2018-07-27T09:09:32.756Z,208.00
2018-07-27T09:10:32.770Z,208.00
2018-07-27T09:11:32.798Z,212.00
2018-07-27T09:12:32.827Z,212.00
2018-07-27T09:13:32.859Z,212.00
2018-07-27T09:14:32.886Z,212.00
2018-07-27T09:15:32.924Z,212.00
2018-07-27T09:16:32.957Z,212.00
2018-07-27T09:17:32.983Z,208.00
2018-07-27T09:18:33.016Z,212.00
2018-07-27T09:19:33.038Z,212.00
2018-07-27T09:20:33.075Z,208.00
2018-07-27T09:21:33.098Z,212.00
2018-07-27T09:22:33.131Z,212.00
2018-07-27T09:23:33.163Z,212.00
2018-07-27T09:24:33.284Z,212.00
2018-07-27T09:25:33.224Z,212.00
2018-07-27T09:26:33.249Z,216.00
2018-07-27T09:27:33.293Z,220.00
2018-07-27T09:28:33.313Z,216.00
2018-07-27T09:29:33.345Z,220.00
2018-07-27T09:30:33.375Z,220.00
2018-07-27T09:31:33.416Z,224.00
2018-07-27T09:32:33.450Z,220.00
2018-07-27T09:33:33.468Z,224.00
2018-07-27T09:34:33.492Z,224.00
2018-07-27T09:35:33.623Z,224.00
2018-07-27T09:36:33.566Z,224.00
2018-07-27T09:37:33.591Z,224.00
2018-07-27T09:38:33.625Z,224.00
2018-07-27T09:39:33.666Z,228.00
2018-07-27T09:40:33.780Z,232.00
2018-07-27T09:41:33.714Z,232.00
2018-07-27T09:42:33.737Z,232.00
2018-07-27T09:43:33.776Z,236.00
2018-07-27T09:44:33.807Z,236.00
2018-07-27T09:45:33.844Z,236.00
2018-07-27T09:46:33.927Z,240.00
2018-07-27T09:47:33.901Z,248.00
2018-07-27T09:48:33.940Z,252.00
2018-07-27T09:49:33.960Z,256.00
2018-07-27T09:50:33.985Z,260.00
2018-07-27T09:51:34.074Z,260.00
2018-07-27T09:52:34.057Z,260.00
2018-07-27T09:53:34.095Z,268.00
2018-07-27T09:54:34.116Z,272.00
2018-07-27T09:55:34.154Z,268.00
2018-07-27T09:56:34.176Z,268.00
2018-07-27T09:57:34.232Z,268.00
2018-07-27T09:58:34.245Z,264.00
2018-07-27T09:59:34.276Z,264.00
2018-07-27T10:00:34.296Z,264.00
2018-07-27T10:01:34.333Z,264.00
2018-07-27T10:02:34.373Z,268.00
2018-07-27T10:03:34.394Z,268.00
2018-07-27T10:04:34.431Z,260.00
2018-07-27T10:05:34.454Z,268.00
2018-07-27T10:06:34.492Z,264.00
2018-07-27T10:07:34.521Z,268.00
2018-07-27T10:08:34.548Z,268.00
2018-07-27T10:09:34.577Z,272.00
2018-07-27T10:10:34.611Z,268.00
2018-07-27T10:11:34.644Z,276.00
2018-07-27T10:12:34.673Z,272.00
2018-07-27T10:13:34.701Z,268.00
2018-07-27T10:14:34.735Z,272.00
2018-07-27T10:15:34.762Z,268.00
2018-07-27T10:16:34.797Z,264.00
2018-07-27T10:17:34.828Z,264.00
2018-07-27T10:18:34.908Z,260.00
2018-07-27T10:19:34.889Z,264.00
2018-07-27T10:20:34.923Z,264.00
2018-07-27T10:21:34.950Z,264.00
2018-07-27T10:22:34.996Z,264.00
2018-07-27T10:23:35.023Z,264.00
2018-07-27T10:24:35.043Z,264.00
2018-07-27T10:25:35.077Z,264.00
2018-07-27T10:26:35.110Z,260.00
2018-07-27T10:27:35.150Z,260.00
2018-07-27T10:28:35.177Z,260.00
2018-07-27T10:29:35.203Z,260.00
2018-07-27T10:30:35.240Z,260.00
2018-07-27T10:32:35.296Z,256.00
2018-07-27T10:33:35.336Z,260.00
2018-07-27T10:34:35.359Z,260.00
2018-07-27T10:35:35.390Z,256.00
2018-07-27T10:36:35.429Z,256.00
2018-07-27T10:37:35.453Z,256.00
2018-07-27T10:38:35.517Z,260.00
2018-07-27T10:40:35.541Z,260.00
2018-07-27T10:41:35.579Z,264.00
2018-07-27T10:42:35.612Z,264.00
2018-07-27T10:43:35.641Z,268.00
2018-07-27T10:44:35.671Z,268.00
2018-07-27T10:45:35.731Z,268.00
2018-07-27T10:46:35.739Z,272.00
2018-07-27T10:47:35.763Z,272.00
2018-07-27T10:48:35.803Z,272.00
2018-07-27T10:49:35.830Z,276.00
2018-07-27T10:50:35.874Z,276.00
2018-07-27T10:51:35.906Z,276.00
2018-07-27T10:52:35.938Z,280.00
2018-07-27T10:53:35.957Z,276.00
2018-07-27T10:54:35.989Z,276.00
2018-07-27T10:55:36.023Z,272.00
2018-07-27T10:56:36.049Z,276.00
2018-07-27T10:57:36.089Z,280.00
2018-07-27T10:58:36.124Z,276.00
2018-07-27T10:59:36.177Z,280.00
2018-07-27T11:00:36.188Z,284.00
2018-07-27T11:01:36.205Z,280.00
2018-07-27T11:02:36.256Z,284.00
2018-07-27T11:03:36.273Z,284.00
2018-07-27T11:04:36.305Z,284.00
2018-07-27T11:05:36.343Z,280.00
2018-07-27T11:06:36.367Z,284.00
2018-07-27T11:07:36.402Z,292.00
2018-07-27T11:09:36.460Z,288.00
2018-07-27T11:10:36.527Z,288.00
2018-07-27T11:11:36.538Z,292.00
2018-07-27T11:12:36.580Z,296.00
2018-07-27T11:13:36.588Z,300.00
2018-07-27T11:14:36.625Z,300.00
2018-07-27T11:15:36.648Z,300.00
2018-07-27T11:16:36.681Z,312.00
2018-07-27T11:17:36.730Z,316.00
2018-07-27T11:18:36.753Z,320.00
2018-07-27T11:19:36.802Z,324.00
2018-07-27T11:20:36.823Z,328.00
2018-07-27T11:21:36.846Z,332.00
2018-07-27T11:22:36.889Z,336.00
2018-07-27T11:23:36.908Z,336.00
2018-07-27T11:24:36.947Z,348.00
2018-07-27T11:25:37.026Z,364.00
2018-07-27T11:26:37.002Z,380.00
2018-07-27T11:28:37.073Z,384.00
2018-07-27T11:29:37.102Z,396.00
2018-07-27T11:30:37.138Z,408.00
2018-07-27T11:31:37.170Z,420.00
2018-07-27T11:32:37.204Z,440.00
2018-07-27T11:33:37.246Z,452.00
2018-07-27T11:34:37.263Z,460.00
2018-07-27T11:35:37.299Z,480.00
2018-07-27T11:36:37.330Z,504.00
2018-07-27T11:37:37.371Z,516.00
2018-07-27T11:38:37.409Z,540.00
2018-07-27T11:39:37.436Z,568.00
2018-07-27T11:40:37.468Z,580.00
2018-07-27T11:41:37.491Z,600.00
2018-07-27T11:42:37.553Z,612.00
2018-07-27T11:43:37.560Z,620.00
2018-07-27T11:44:37.585Z,628.00
2018-07-27T11:45:37.627Z,660.00
2018-07-27T11:46:37.657Z,688.00
2018-07-27T11:47:37.690Z,712.00
2018-07-27T11:48:37.716Z,732.00
2018-07-27T11:49:37.759Z,748.00
2018-07-27T11:50:37.781Z,768.00
2018-07-27T11:51:37.824Z,780.00
2018-07-27T11:52:37.864Z,804.00
2018-07-27T11:53:37.883Z,824.00
2018-07-27T11:54:37.919Z,832.00
2018-07-27T11:55:37.947Z,840.00
2018-07-27T11:56:37.986Z,864.00
2018-07-27T11:57:38.024Z,872.00
2018-07-27T11:58:38.048Z,888.00
2018-07-27T11:59:38.081Z,908.00
2018-07-27T12:00:38.114Z,908.00
2018-07-27T12:01:38.208Z,900.00
2018-07-27T12:02:38.179Z,904.00
2018-07-27T12:03:38.209Z,896.00
2018-07-27T12:04:38.241Z,904.00
2018-07-27T12:05:38.281Z,880.00
2018-07-27T12:06:38.313Z,852.00
2018-07-27T12:07:38.344Z,840.00
2018-07-27T12:08:38.383Z,824.00
2018-07-27T12:09:38.428Z,792.00
2018-07-27T12:10:38.442Z,768.00
2018-07-27T12:11:38.476Z,748.00
2018-07-27T12:12:38.510Z,736.00
2018-07-27T12:13:38.567Z,664.00
2018-07-27T12:14:38.816Z,640.00
2018-07-27T12:15:38.615Z,628.00
2018-07-27T12:16:38.657Z,612.00
2018-07-27T12:17:38.688Z,592.00
2018-07-27T12:18:38.706Z,576.00
2018-07-27T12:19:38.747Z,504.00
2018-07-27T12:20:38.827Z,492.00
2018-07-27T12:21:39.098Z,480.00
2018-07-27T12:22:38.843Z,464.00
2018-07-27T12:23:38.883Z,464.00
2018-07-27T12:24:38.915Z,452.00
2018-07-27T12:25:38.947Z,424.00
2018-07-27T12:26:38.981Z,416.00
2018-07-27T12:27:39.019Z,416.00
2018-07-27T12:28:39.050Z,392.00
2018-07-27T12:29:39.083Z,396.00
2018-07-27T12:30:39.114Z,432.00
2018-07-27T12:31:39.152Z,420.00
2018-07-27T12:32:39.225Z,440.00
2018-07-27T12:33:39.224Z,412.00
2018-07-27T12:34:39.249Z,420.00
2018-07-27T12:36:39.321Z,428.00
2018-07-27T12:37:39.353Z,428.00
2018-07-27T12:38:39.407Z,428.00
2018-07-27T12:39:39.421Z,432.00
2018-07-27T12:40:39.453Z,436.00
2018-07-27T12:41:39.496Z,444.00
2018-07-27T12:42:39.551Z,512.00
2018-07-27T12:44:39.589Z,460.00
2018-07-27T12:45:39.630Z,440.00
2018-07-27T12:46:39.669Z,476.00
2018-07-27T12:47:39.688Z,416.00
2018-07-27T12:48:39.740Z,404.00
2018-07-27T12:49:39.776Z,408.00
2018-07-27T12:50:39.803Z,404.00
2018-07-27T12:51:39.837Z,416.00
2018-07-27T12:53:39.936Z,428.00
2018-07-27T12:54:39.939Z,432.00
2018-07-27T12:55:39.979Z,440.00
2018-07-27T12:56:40.005Z,440.00
2018-07-27T12:57:40.038Z,436.00
2018-07-27T12:58:40.071Z,428.00
2018-07-27T13:00:40.133Z,412.00
2018-07-27T13:01:40.185Z,412.00
2018-07-27T13:02:40.221Z,408.00
2018-07-27T13:03:40.237Z,416.00
2018-07-27T13:04:40.279Z,420.00
2018-07-27T13:05:40.305Z,424.00
2018-07-27T13:06:40.354Z,424.00
2018-07-27T13:07:40.374Z,432.00
2018-07-27T13:08:40.417Z,424.00